sensor_id;sensor_type;location;lat;lon;timestamp;P1;durP1;ratioP1;P2;durP2;ratioP2
50393;SDS011;36308;46.312;25.288;2023-04-19T00:00:26;10.77;;;6.07;;
50393;SDS011;36308;46.312;25.288;2023-04-19T00:02:52;11.52;;;6.82;;
50393;SDS011;36308;46.312;25.288;2023-04-19T00:05:18;12.15;;;6.68;;
50393;SDS011;36308;46.312;25.288;2023-04-19T00:07:46;12.88;;;7.65;;
50393;SDS011;36308;46.312;25.288;2023-04-19T00:10:11;14.15;;;7.78;;
50393;SDS011;36308;46.312;25.288;2023-04-19T00:12:37;20.35;;;9.73;;
50393;SDS011;36308;46.312;25.288;2023-04-19T00:15:04;13.25;;;8.18;;
50393;SDS011;36308;46.312;25.288;2023-04-19T00:17:30;13.05;;;6.90;;
50393;SDS011;36308;46.312;25.288;2023-04-19T00:19:56;14.55;;;6.60;;
50393;SDS011;36308;46.312;25.288;2023-04-19T00:22:22;11.25;;;7.05;;
50393;SDS011;36308;46.312;25.288;2023-04-19T00:24:47;11.70;;;7.13;;
50393;SDS011;36308;46.312;25.288;2023-04-19T00:27:13;14.30;;;7.47;;
50393;SDS011;36308;46.312;25.288;2023-04-19T00:29:38;12.55;;;7.72;;
50393;SDS011;36308;46.312;25.288;2023-04-19T00:32:04;12.30;;;6.43;;
50393;SDS011;36308;46.312;25.288;2023-04-19T00:34:32;10.85;;;6.93;;
50393;SDS011;36308;46.312;25.288;2023-04-19T00:36:58;10.55;;;6.45;;
50393;SDS011;36308;46.312;25.288;2023-04-19T00:39:23;12.07;;;6.70;;
50393;SDS011;36308;46.312;25.288;2023-04-19T00:41:49;13.30;;;7.00;;
50393;SDS011;36308;46.312;25.288;2023-04-19T00:44:14;13.40;;;7.10;;
50393;SDS011;36308;46.312;25.288;2023-04-19T00:46:40;12.75;;;7.68;;
50393;SDS011;36308;46.312;25.288;2023-04-19T00:49:07;12.30;;;6.90;;
50393;SDS011;36308;46.312;25.288;2023-04-19T00:51:33;13.75;;;7.20;;
50393;SDS011;36308;46.312;25.288;2023-04-19T00:54:01;19.02;;;10.25;;
50393;SDS011;36308;46.312;25.288;2023-04-19T00:56:27;18.60;;;8.32;;
50393;SDS011;36308;46.312;25.288;2023-04-19T00:58:55;11.77;;;7.10;;
50393;SDS011;36308;46.312;25.288;2023-04-19T01:01:21;11.55;;;6.43;;
50393;SDS011;36308;46.312;25.288;2023-04-19T01:03:46;10.80;;;6.00;;
50393;SDS011;36308;46.312;25.288;2023-04-19T01:06:13;11.50;;;7.00;;
50393;SDS011;36308;46.312;25.288;2023-04-19T01:08:40;12.85;;;6.82;;
50393;SDS011;36308;46.312;25.288;2023-04-19T01:11:05;12.27;;;7.13;;
50393;SDS011;36308;46.312;25.288;2023-04-19T01:13:32;10.52;;;6.80;;
50393;SDS011;36308;46.312;25.288;2023-04-19T01:15:58;11.68;;;7.07;;
50393;SDS011;36308;46.312;25.288;2023-04-19T01:18:24;17.85;;;7.05;;
50393;SDS011;36308;46.312;25.288;2023-04-19T01:20:50;9.30;;;5.93;;
50393;SDS011;36308;46.312;25.288;2023-04-19T01:23:16;10.00;;;5.60;;
50393;SDS011;36308;46.312;25.288;2023-04-19T01:25:42;8.93;;;5.75;;
50393;SDS011;36308;46.312;25.288;2023-04-19T01:28:07;8.90;;;5.20;;
50393;SDS011;36308;46.312;25.288;2023-04-19T01:30:33;8.57;;;5.18;;
50393;SDS011;36308;46.312;25.288;2023-04-19T01:32:59;8.90;;;4.95;;
50393;SDS011;36308;46.312;25.288;2023-04-19T01:35:25;11.70;;;6.50;;
50393;SDS011;36308;46.312;25.288;2023-04-19T01:37:50;12.02;;;6.07;;
50393;SDS011;36308;46.312;25.288;2023-04-19T01:40:19;13.43;;;7.53;;
50393;SDS011;36308;46.312;25.288;2023-04-19T01:42:46;10.95;;;6.50;;
50393;SDS011;36308;46.312;25.288;2023-04-19T01:45:12;11.65;;;7.95;;
50393;SDS011;36308;46.312;25.288;2023-04-19T01:47:37;15.07;;;9.70;;
50393;SDS011;36308;46.312;25.288;2023-04-19T01:50:03;11.70;;;7.43;;
50393;SDS011;36308;46.312;25.288;2023-04-19T01:52:28;11.43;;;6.88;;
50393;SDS011;36308;46.312;25.288;2023-04-19T01:54:54;11.00;;;6.78;;
50393;SDS011;36308;46.312;25.288;2023-04-19T01:57:19;11.30;;;6.30;;
50393;SDS011;36308;46.312;25.288;2023-04-19T01:59:45;15.25;;;6.57;;
50393;SDS011;36308;46.312;25.288;2023-04-19T02:02:10;10.15;;;5.95;;
50393;SDS011;36308;46.312;25.288;2023-04-19T02:04:36;10.13;;;5.97;;
50393;SDS011;36308;46.312;25.288;2023-04-19T02:07:01;9.75;;;5.85;;
50393;SDS011;36308;46.312;25.288;2023-04-19T02:09:27;12.80;;;5.88;;
50393;SDS011;36308;46.312;25.288;2023-04-19T02:11:53;9.02;;;6.68;;
50393;SDS011;36308;46.312;25.288;2023-04-19T02:14:18;11.38;;;5.85;;
50393;SDS011;36308;46.312;25.288;2023-04-19T02:16:44;12.00;;;5.88;;
50393;SDS011;36308;46.312;25.288;2023-04-19T02:19:09;10.40;;;5.97;;
50393;SDS011;36308;46.312;25.288;2023-04-19T02:21:35;10.23;;;5.75;;
50393;SDS011;36308;46.312;25.288;2023-04-19T02:24:00;9.32;;;6.22;;
50393;SDS011;36308;46.312;25.288;2023-04-19T02:26:26;11.05;;;6.15;;
50393;SDS011;36308;46.312;25.288;2023-04-19T02:28:51;8.85;;;5.18;;
50393;SDS011;36308;46.312;25.288;2023-04-19T02:31:17;12.68;;;6.15;;
50393;SDS011;36308;46.312;25.288;2023-04-19T02:33:43;11.55;;;6.43;;
50393;SDS011;36308;46.312;25.288;2023-04-19T02:36:10;12.68;;;6.85;;
50393;SDS011;36308;46.312;25.288;2023-04-19T02:38:36;18.33;;;8.40;;
50393;SDS011;36308;46.312;25.288;2023-04-19T02:41:01;12.88;;;7.47;;
50393;SDS011;36308;46.312;25.288;2023-04-19T02:43:28;13.00;;;6.35;;
50393;SDS011;36308;46.312;25.288;2023-04-19T02:45:54;11.43;;;8.25;;
50393;SDS011;36308;46.312;25.288;2023-04-19T02:48:20;10.75;;;6.63;;
50393;SDS011;36308;46.312;25.288;2023-04-19T02:50:46;10.63;;;5.95;;
50393;SDS011;36308;46.312;25.288;2023-04-19T02:53:11;11.23;;;7.18;;
50393;SDS011;36308;46.312;25.288;2023-04-19T02:55:37;10.68;;;6.35;;
50393;SDS011;36308;46.312;25.288;2023-04-19T02:58:02;12.35;;;7.00;;
50393;SDS011;36308;46.312;25.288;2023-04-19T03:00:28;12.90;;;7.50;;
50393;SDS011;36308;46.312;25.288;2023-04-19T03:02:54;11.35;;;6.47;;
50393;SDS011;36308;46.312;25.288;2023-04-19T03:05:21;11.10;;;6.07;;
50393;SDS011;36308;46.312;25.288;2023-04-19T03:07:47;9.55;;;5.65;;
50393;SDS011;36308;46.312;25.288;2023-04-19T03:10:13;11.55;;;5.80;;
50393;SDS011;36308;46.312;25.288;2023-04-19T03:12:38;9.60;;;5.40;;
50393;SDS011;36308;46.312;25.288;2023-04-19T03:15:04;9.73;;;5.85;;
50393;SDS011;36308;46.312;25.288;2023-04-19T03:17:30;8.40;;;5.05;;
50393;SDS011;36308;46.312;25.288;2023-04-19T03:19:56;9.90;;;5.30;;
50393;SDS011;36308;46.312;25.288;2023-04-19T03:22:21;10.10;;;5.95;;
50393;SDS011;36308;46.312;25.288;2023-04-19T03:24:47;10.45;;;5.95;;
50393;SDS011;36308;46.312;25.288;2023-04-19T03:27:12;11.20;;;7.10;;
50393;SDS011;36308;46.312;25.288;2023-04-19T03:29:38;15.57;;;8.00;;
50393;SDS011;36308;46.312;25.288;2023-04-19T03:32:03;15.93;;;9.07;;
50393;SDS011;36308;46.312;25.288;2023-04-19T03:34:29;28.00;;;18.67;;
50393;SDS011;36308;46.312;25.288;2023-04-19T03:36:54;12.68;;;8.15;;
50393;SDS011;36308;46.312;25.288;2023-04-19T03:39:20;14.98;;;7.95;;
50393;SDS011;36308;46.312;25.288;2023-04-19T03:41:45;11.50;;;7.25;;
50393;SDS011;36308;46.312;25.288;2023-04-19T03:44:11;11.00;;;6.72;;
50393;SDS011;36308;46.312;25.288;2023-04-19T03:46:36;13.20;;;6.97;;
50393;SDS011;36308;46.312;25.288;2023-04-19T03:49:05;13.43;;;9.82;;
50393;SDS011;36308;46.312;25.288;2023-04-19T03:51:31;15.52;;;11.23;;
50393;SDS011;36308;46.312;25.288;2023-04-19T03:53:56;16.40;;;11.35;;
50393;SDS011;36308;46.312;25.288;2023-04-19T03:56:22;15.45;;;10.30;;
50393;SDS011;36308;46.312;25.288;2023-04-19T03:58:51;10.43;;;7.10;;
50393;SDS011;36308;46.312;25.288;2023-04-19T04:01:17;15.60;;;11.00;;
50393;SDS011;36308;46.312;25.288;2023-04-19T04:03:45;14.55;;;8.48;;
50393;SDS011;36308;46.312;25.288;2023-04-19T04:06:11;19.02;;;12.05;;
50393;SDS011;36308;46.312;25.288;2023-04-19T04:08:37;15.60;;;10.10;;
50393;SDS011;36308;46.312;25.288;2023-04-19T04:11:02;10.45;;;6.53;;
50393;SDS011;36308;46.312;25.288;2023-04-19T04:13:28;10.48;;;5.93;;
50393;SDS011;36308;46.312;25.288;2023-04-19T04:15:53;10.45;;;5.80;;
50393;SDS011;36308;46.312;25.288;2023-04-19T04:18:18;11.57;;;9.63;;
50393;SDS011;36308;46.312;25.288;2023-04-19T04:20:44;12.10;;;7.43;;
50393;SDS011;36308;46.312;25.288;2023-04-19T04:23:10;10.38;;;6.10;;
50393;SDS011;36308;46.312;25.288;2023-04-19T04:25:35;12.02;;;5.80;;
50393;SDS011;36308;46.312;25.288;2023-04-19T04:28:02;20.33;;;9.90;;
50393;SDS011;36308;46.312;25.288;2023-04-19T04:30:28;23.27;;;14.38;;
50393;SDS011;36308;46.312;25.288;2023-04-19T04:32:54;22.65;;;10.93;;
50393;SDS011;36308;46.312;25.288;2023-04-19T04:35:22;16.35;;;8.65;;
50393;SDS011;36308;46.312;25.288;2023-04-19T04:37:47;15.60;;;8.75;;
50393;SDS011;36308;46.312;25.288;2023-04-19T04:40:13;9.90;;;6.05;;
50393;SDS011;36308;46.312;25.288;2023-04-19T04:42:39;10.60;;;6.60;;
50393;SDS011;36308;46.312;25.288;2023-04-19T04:45:07;10.73;;;6.55;;
50393;SDS011;36308;46.312;25.288;2023-04-19T04:47:35;11.90;;;8.55;;
50393;SDS011;36308;46.312;25.288;2023-04-19T04:50:01;11.75;;;7.30;;
50393;SDS011;36308;46.312;25.288;2023-04-19T04:52:27;16.67;;;8.68;;
50393;SDS011;36308;46.312;25.288;2023-04-19T04:54:52;35.45;;;23.33;;
50393;SDS011;36308;46.312;25.288;2023-04-19T04:57:18;44.38;;;28.08;;
50393;SDS011;36308;46.312;25.288;2023-04-19T04:59:44;37.30;;;25.08;;
50393;SDS011;36308;46.312;25.288;2023-04-19T05:02:12;52.40;;;27.00;;
50393;SDS011;36308;46.312;25.288;2023-04-19T05:04:41;28.65;;;19.95;;
50393;SDS011;36308;46.312;25.288;2023-04-19T05:07:06;29.92;;;21.08;;
50393;SDS011;36308;46.312;25.288;2023-04-19T05:09:32;31.17;;;16.40;;
50393;SDS011;36308;46.312;25.288;2023-04-19T05:11:57;24.98;;;14.23;;
50393;SDS011;36308;46.312;25.288;2023-04-19T05:14:23;21.60;;;12.32;;
50393;SDS011;36308;46.312;25.288;2023-04-19T05:16:48;24.17;;;14.40;;
50393;SDS011;36308;46.312;25.288;2023-04-19T05:19:14;24.05;;;13.25;;
50393;SDS011;36308;46.312;25.288;2023-04-19T05:21:39;19.15;;;12.57;;
50393;SDS011;36308;46.312;25.288;2023-04-19T05:24:05;18.02;;;12.63;;
50393;SDS011;36308;46.312;25.288;2023-04-19T05:26:31;22.13;;;12.27;;
50393;SDS011;36308;46.312;25.288;2023-04-19T05:28:56;21.05;;;12.65;;
50393;SDS011;36308;46.312;25.288;2023-04-19T05:31:22;23.95;;;12.57;;
50393;SDS011;36308;46.312;25.288;2023-04-19T05:33:48;9.77;;;6.07;;
50393;SDS011;36308;46.312;25.288;2023-04-19T05:36:13;62.47;;;15.15;;
50393;SDS011;36308;46.312;25.288;2023-04-19T05:38:39;18.52;;;9.55;;
50393;SDS011;36308;46.312;25.288;2023-04-19T05:41:04;12.88;;;7.40;;
50393;SDS011;36308;46.312;25.288;2023-04-19T05:43:30;17.90;;;7.97;;
50393;SDS011;36308;46.312;25.288;2023-04-19T05:45:56;12.48;;;7.35;;
50393;SDS011;36308;46.312;25.288;2023-04-19T05:48:23;15.38;;;8.20;;
50393;SDS011;36308;46.312;25.288;2023-04-19T05:50:50;14.95;;;8.52;;
50393;SDS011;36308;46.312;25.288;2023-04-19T05:53:18;17.23;;;8.73;;
50393;SDS011;36308;46.312;25.288;2023-04-19T05:55:44;13.30;;;7.82;;
50393;SDS011;36308;46.312;25.288;2023-04-19T05:58:12;9.93;;;6.38;;
50393;SDS011;36308;46.312;25.288;2023-04-19T06:00:37;10.88;;;5.88;;
50393;SDS011;36308;46.312;25.288;2023-04-19T06:03:03;10.68;;;5.05;;
50393;SDS011;36308;46.312;25.288;2023-04-19T06:05:28;9.23;;;4.60;;
50393;SDS011;36308;46.312;25.288;2023-04-19T06:07:54;9.13;;;5.10;;
50393;SDS011;36308;46.312;25.288;2023-04-19T06:10:20;7.43;;;4.40;;
50393;SDS011;36308;46.312;25.288;2023-04-19T06:12:47;10.32;;;4.50;;
50393;SDS011;36308;46.312;25.288;2023-04-19T06:15:12;9.20;;;4.38;;
50393;SDS011;36308;46.312;25.288;2023-04-19T06:17:38;11.23;;;5.00;;
50393;SDS011;36308;46.312;25.288;2023-04-19T06:20:04;10.20;;;4.55;;
50393;SDS011;36308;46.312;25.288;2023-04-19T06:22:32;14.25;;;4.30;;
50393;SDS011;36308;46.312;25.288;2023-04-19T06:24:57;12.50;;;4.40;;
50393;SDS011;36308;46.312;25.288;2023-04-19T06:27:23;10.75;;;4.55;;
50393;SDS011;36308;46.312;25.288;2023-04-19T06:29:48;9.95;;;3.70;;
50393;SDS011;36308;46.312;25.288;2023-04-19T06:32:14;6.80;;;3.90;;
50393;SDS011;36308;46.312;25.288;2023-04-19T06:34:40;10.52;;;4.47;;
50393;SDS011;36308;46.312;25.288;2023-04-19T06:37:05;5.05;;;3.00;;
50393;SDS011;36308;46.312;25.288;2023-04-19T06:39:31;8.50;;;3.78;;
50393;SDS011;36308;46.312;25.288;2023-04-19T06:41:56;11.18;;;3.80;;
50393;SDS011;36308;46.312;25.288;2023-04-19T06:44:22;10.18;;;4.90;;
50393;SDS011;36308;46.312;25.288;2023-04-19T06:46:47;11.52;;;4.18;;
50393;SDS011;36308;46.312;25.288;2023-04-19T06:49:13;7.15;;;3.35;;
50393;SDS011;36308;46.312;25.288;2023-04-19T06:51:38;6.97;;;2.97;;
50393;SDS011;36308;46.312;25.288;2023-04-19T06:54:04;6.65;;;2.40;;
50393;SDS011;36308;46.312;25.288;2023-04-19T06:56:42;4.65;;;2.33;;
50393;SDS011;36308;46.312;25.288;2023-04-19T06:59:13;3.58;;;2.17;;
50393;SDS011;36308;46.312;25.288;2023-04-19T07:01:41;6.30;;;2.10;;
50393;SDS011;36308;46.312;25.288;2023-04-19T07:04:07;8.80;;;2.45;;
50393;SDS011;36308;46.312;25.288;2023-04-19T07:06:34;3.40;;;2.03;;
50393;SDS011;36308;46.312;25.288;2023-04-19T07:09:00;6.93;;;3.22;;
50393;SDS011;36308;46.312;25.288;2023-04-19T07:11:26;3.58;;;1.77;;
50393;SDS011;36308;46.312;25.288;2023-04-19T07:13:52;3.92;;;1.80;;
50393;SDS011;36308;46.312;25.288;2023-04-19T07:16:18;4.70;;;2.35;;
50393;SDS011;36308;46.312;25.288;2023-04-19T07:18:44;4.00;;;2.13;;
50393;SDS011;36308;46.312;25.288;2023-04-19T07:21:10;4.22;;;1.98;;
50393;SDS011;36308;46.312;25.288;2023-04-19T07:23:36;5.53;;;2.17;;
50393;SDS011;36308;46.312;25.288;2023-04-19T07:26:01;4.68;;;2.42;;
50393;SDS011;36308;46.312;25.288;2023-04-19T07:28:27;7.43;;;2.53;;
50393;SDS011;36308;46.312;25.288;2023-04-19T07:30:53;13.15;;;3.15;;
50393;SDS011;36308;46.312;25.288;2023-04-19T07:33:19;5.47;;;2.30;;
50393;SDS011;36308;46.312;25.288;2023-04-19T07:35:45;5.10;;;2.20;;
50393;SDS011;36308;46.312;25.288;2023-04-19T07:38:10;4.63;;;1.70;;
50393;SDS011;36308;46.312;25.288;2023-04-19T07:40:36;4.18;;;2.13;;
50393;SDS011;36308;46.312;25.288;2023-04-19T07:43:02;4.55;;;2.55;;
50393;SDS011;36308;46.312;25.288;2023-04-19T07:45:29;5.60;;;2.10;;
50393;SDS011;36308;46.312;25.288;2023-04-19T07:47:54;3.47;;;1.80;;
50393;SDS011;36308;46.312;25.288;2023-04-19T07:50:20;5.10;;;2.05;;
50393;SDS011;36308;46.312;25.288;2023-04-19T07:52:45;2.60;;;1.70;;
50393;SDS011;36308;46.312;25.288;2023-04-19T07:55:11;3.45;;;1.90;;
50393;SDS011;36308;46.312;25.288;2023-04-19T07:57:37;2.40;;;1.52;;
50393;SDS011;36308;46.312;25.288;2023-04-19T08:00:02;3.40;;;2.65;;
50393;SDS011;36308;46.312;25.288;2023-04-19T08:02:28;4.93;;;2.47;;
50393;SDS011;36308;46.312;25.288;2023-04-19T08:04:54;4.35;;;2.03;;
50393;SDS011;36308;46.312;25.288;2023-04-19T08:07:21;2.28;;;1.65;;
50393;SDS011;36308;46.312;25.288;2023-04-19T08:09:48;4.63;;;1.83;;
50393;SDS011;36308;46.312;25.288;2023-04-19T08:12:13;3.42;;;1.63;;
50393;SDS011;36308;46.312;25.288;2023-04-19T08:14:40;4.35;;;2.67;;
50393;SDS011;36308;46.312;25.288;2023-04-19T08:17:06;3.28;;;2.05;;
50393;SDS011;36308;46.312;25.288;2023-04-19T08:19:32;4.35;;;2.10;;
50393;SDS011;36308;46.312;25.288;2023-04-19T08:21:57;8.93;;;5.00;;
50393;SDS011;36308;46.312;25.288;2023-04-19T08:24:23;17.00;;;8.55;;
50393;SDS011;36308;46.312;25.288;2023-04-19T08:26:49;5.28;;;2.63;;
50393;SDS011;36308;46.312;25.288;2023-04-19T08:29:20;4.00;;;1.67;;
50393;SDS011;36308;46.312;25.288;2023-04-19T08:31:47;3.33;;;2.00;;
50393;SDS011;36308;46.312;25.288;2023-04-19T08:34:13;5.60;;;2.20;;
50393;SDS011;36308;46.312;25.288;2023-04-19T08:36:38;3.78;;;1.77;;
50393;SDS011;36308;46.312;25.288;2023-04-19T08:39:04;3.67;;;2.20;;
50393;SDS011;36308;46.312;25.288;2023-04-19T08:41:29;3.58;;;1.83;;
50393;SDS011;36308;46.312;25.288;2023-04-19T08:43:56;5.50;;;2.00;;
50393;SDS011;36308;46.312;25.288;2023-04-19T08:46:22;4.65;;;2.10;;
50393;SDS011;36308;46.312;25.288;2023-04-19T08:48:49;4.45;;;2.30;;
50393;SDS011;36308;46.312;25.288;2023-04-19T08:51:15;3.67;;;2.03;;
50393;SDS011;36308;46.312;25.288;2023-04-19T08:53:42;3.90;;;1.80;;
50393;SDS011;36308;46.312;25.288;2023-04-19T08:56:08;3.53;;;1.90;;
50393;SDS011;36308;46.312;25.288;2023-04-19T08:58:34;2.42;;;1.70;;
50393;SDS011;36308;46.312;25.288;2023-04-19T09:01:02;2.10;;;1.77;;
50393;SDS011;36308;46.312;25.288;2023-04-19T09:03:29;3.67;;;1.80;;
50393;SDS011;36308;46.312;25.288;2023-04-19T09:05:56;4.28;;;2.25;;
50393;SDS011;36308;46.312;25.288;2023-04-19T09:08:28;4.57;;;2.30;;
50393;SDS011;36308;46.312;25.288;2023-04-19T09:10:56;9.65;;;2.50;;
50393;SDS011;36308;46.312;25.288;2023-04-19T09:13:26;4.22;;;2.28;;
50393;SDS011;36308;46.312;25.288;2023-04-19T09:15:53;5.82;;;1.70;;
50393;SDS011;36308;46.312;25.288;2023-04-19T09:18:21;8.43;;;2.15;;
50393;SDS011;36308;46.312;25.288;2023-04-19T09:20:51;5.35;;;2.47;;
50393;SDS011;36308;46.312;25.288;2023-04-19T09:23:24;5.43;;;2.63;;
50393;SDS011;36308;46.312;25.288;2023-04-19T09:25:51;4.53;;;2.13;;
50393;SDS011;36308;46.312;25.288;2023-04-19T09:28:22;2.22;;;1.55;;
50393;SDS011;36308;46.312;25.288;2023-04-19T09:30:48;2.15;;;1.60;;
50393;SDS011;36308;46.312;25.288;2023-04-19T09:33:30;3.90;;;2.50;;
50393;SDS011;36308;46.312;25.288;2023-04-19T09:35:57;2.78;;;1.83;;
50393;SDS011;36308;46.312;25.288;2023-04-19T09:38:24;3.00;;;1.30;;
50393;SDS011;36308;46.312;25.288;2023-04-19T09:40:49;3.47;;;2.00;;
50393;SDS011;36308;46.312;25.288;2023-04-19T09:43:25;3.63;;;1.90;;
50393;SDS011;36308;46.312;25.288;2023-04-19T09:45:50;2.47;;;1.65;;
50393;SDS011;36308;46.312;25.288;2023-04-19T09:48:16;3.75;;;1.73;;
50393;SDS011;36308;46.312;25.288;2023-04-19T09:53:20;4.85;;;2.03;;
50393;SDS011;36308;46.312;25.288;2023-04-19T09:55:47;2.72;;;1.77;;
50393;SDS011;36308;46.312;25.288;2023-04-19T09:58:13;2.58;;;1.77;;
50393;SDS011;36308;46.312;25.288;2023-04-19T10:00:45;3.28;;;1.55;;
50393;SDS011;36308;46.312;25.288;2023-04-19T10:03:15;2.65;;;1.80;;
50393;SDS011;36308;46.312;25.288;2023-04-19T10:05:42;4.28;;;1.90;;
50393;SDS011;36308;46.312;25.288;2023-04-19T10:08:10;2.75;;;2.00;;
50393;SDS011;36308;46.312;25.288;2023-04-19T10:10:36;3.10;;;1.77;;
50393;SDS011;36308;46.312;25.288;2023-04-19T10:13:06;2.17;;;1.70;;
50393;SDS011;36308;46.312;25.288;2023-04-19T10:15:35;2.60;;;1.98;;
50393;SDS011;36308;46.312;25.288;2023-04-19T10:18:02;7.40;;;2.22;;
50393;SDS011;36308;46.312;25.288;2023-04-19T10:20:32;3.83;;;1.67;;
50393;SDS011;36308;46.312;25.288;2023-04-19T10:23:01;5.95;;;2.08;;
50393;SDS011;36308;46.312;25.288;2023-04-19T10:25:28;3.42;;;2.00;;
50393;SDS011;36308;46.312;25.288;2023-04-19T10:27:54;2.22;;;1.63;;
50393;SDS011;36308;46.312;25.288;2023-04-19T10:30:21;3.05;;;1.75;;
50393;SDS011;36308;46.312;25.288;2023-04-19T10:32:51;2.42;;;1.77;;
50393;SDS011;36308;46.312;25.288;2023-04-19T10:35:25;3.22;;;1.73;;
50393;SDS011;36308;46.312;25.288;2023-04-19T10:38:05;4.25;;;1.98;;
50393;SDS011;36308;46.312;25.288;2023-04-19T10:43:20;2.78;;;1.65;;
50393;SDS011;36308;46.312;25.288;2023-04-19T10:45:46;3.50;;;2.00;;
50393;SDS011;36308;46.312;25.288;2023-04-19T11:01:36;4.32;;;1.90;;
50393;SDS011;36308;46.312;25.288;2023-04-19T11:09:22;4.82;;;2.00;;
50393;SDS011;36308;46.312;25.288;2023-04-19T11:11:56;2.75;;;1.83;;
50393;SDS011;36308;46.312;25.288;2023-04-19T11:14:24;2.45;;;1.80;;
50393;SDS011;36308;46.312;25.288;2023-04-19T11:16:51;6.82;;;2.90;;
50393;SDS011;36308;46.312;25.288;2023-04-19T11:19:16;3.33;;;1.92;;
50393;SDS011;36308;46.312;25.288;2023-04-19T11:21:47;6.60;;;2.40;;
50393;SDS011;36308;46.312;25.288;2023-04-19T11:24:13;3.15;;;1.92;;
50393;SDS011;36308;46.312;25.288;2023-04-19T11:26:42;5.32;;;2.20;;
50393;SDS011;36308;46.312;25.288;2023-04-19T11:29:09;5.00;;;2.13;;
50393;SDS011;36308;46.312;25.288;2023-04-19T11:31:34;5.10;;;2.33;;
50393;SDS011;36308;46.312;25.288;2023-04-19T11:34:03;7.10;;;2.20;;
50393;SDS011;36308;46.312;25.288;2023-04-19T11:36:32;4.97;;;2.20;;
50393;SDS011;36308;46.312;25.288;2023-04-19T11:39:00;3.83;;;1.85;;
50393;SDS011;36308;46.312;25.288;2023-04-19T11:41:26;6.85;;;2.35;;
50393;SDS011;36308;46.312;25.288;2023-04-19T11:43:52;2.22;;;1.77;;
50393;SDS011;36308;46.312;25.288;2023-04-19T11:46:17;2.47;;;1.92;;
50393;SDS011;36308;46.312;25.288;2023-04-19T11:48:52;3.78;;;2.20;;
50393;SDS011;36308;46.312;25.288;2023-04-19T11:51:18;4.03;;;2.30;;
50393;SDS011;36308;46.312;25.288;2023-04-19T11:53:44;2.75;;;1.60;;
50393;SDS011;36308;46.312;25.288;2023-04-19T11:56:10;4.78;;;2.03;;
50393;SDS011;36308;46.312;25.288;2023-04-19T11:58:42;3.28;;;1.70;;
50393;SDS011;36308;46.312;25.288;2023-04-19T12:08:52;2.78;;;1.90;;
50393;SDS011;36308;46.312;25.288;2023-04-19T12:11:20;2.38;;;1.67;;
50393;SDS011;36308;46.312;25.288;2023-04-19T12:14:09;3.80;;;1.80;;
50393;SDS011;36308;46.312;25.288;2023-04-19T12:16:39;3.65;;;1.90;;
50393;SDS011;36308;46.312;25.288;2023-04-19T12:19:12;7.28;;;3.00;;
50393;SDS011;36308;46.312;25.288;2023-04-19T12:21:42;4.95;;;2.22;;
50393;SDS011;36308;46.312;25.288;2023-04-19T12:24:08;5.72;;;2.10;;
50393;SDS011;36308;46.312;25.288;2023-04-19T12:26:34;11.88;;;2.90;;
50393;SDS011;36308;46.312;25.288;2023-04-19T12:29:00;7.38;;;2.67;;
50393;SDS011;36308;46.312;25.288;2023-04-19T12:31:27;5.05;;;3.30;;
50393;SDS011;36308;46.312;25.288;2023-04-19T12:33:53;8.23;;;3.40;;
50393;SDS011;36308;46.312;25.288;2023-04-19T12:36:18;6.40;;;3.22;;
50393;SDS011;36308;46.312;25.288;2023-04-19T12:38:45;7.22;;;3.53;;
50393;SDS011;36308;46.312;25.288;2023-04-19T12:41:10;5.97;;;2.92;;
50393;SDS011;36308;46.312;25.288;2023-04-19T12:43:36;6.05;;;3.38;;
50393;SDS011;36308;46.312;25.288;2023-04-19T12:46:01;5.25;;;3.55;;
50393;SDS011;36308;46.312;25.288;2023-04-19T12:48:27;7.25;;;3.05;;
50393;SDS011;36308;46.312;25.288;2023-04-19T12:50:53;4.93;;;3.30;;
50393;SDS011;36308;46.312;25.288;2023-04-19T12:53:18;7.13;;;3.03;;
50393;SDS011;36308;46.312;25.288;2023-04-19T12:55:45;9.13;;;3.60;;
50393;SDS011;36308;46.312;25.288;2023-04-19T12:58:14;4.45;;;2.00;;
50393;SDS011;36308;46.312;25.288;2023-04-19T13:00:41;4.03;;;2.00;;
50393;SDS011;36308;46.312;25.288;2023-04-19T13:03:07;6.82;;;2.50;;
50393;SDS011;36308;46.312;25.288;2023-04-19T13:05:33;5.70;;;2.10;;
50393;SDS011;36308;46.312;25.288;2023-04-19T13:07:58;4.35;;;2.47;;
50393;SDS011;36308;46.312;25.288;2023-04-19T13:10:24;5.38;;;1.77;;
50393;SDS011;36308;46.312;25.288;2023-04-19T13:12:50;4.47;;;2.70;;
50393;SDS011;36308;46.312;25.288;2023-04-19T13:15:15;3.55;;;2.40;;
50393;SDS011;36308;46.312;25.288;2023-04-19T13:17:41;5.10;;;2.85;;
50393;SDS011;36308;46.312;25.288;2023-04-19T13:20:07;5.25;;;2.60;;
50393;SDS011;36308;46.312;25.288;2023-04-19T13:22:33;10.32;;;2.70;;
50393;SDS011;36308;46.312;25.288;2023-04-19T13:24:59;6.25;;;2.53;;
50393;SDS011;36308;46.312;25.288;2023-04-19T13:27:25;8.60;;;2.50;;
50393;SDS011;36308;46.312;25.288;2023-04-19T13:29:50;5.20;;;2.92;;
50393;SDS011;36308;46.312;25.288;2023-04-19T13:32:16;6.25;;;3.67;;
50393;SDS011;36308;46.312;25.288;2023-04-19T13:34:41;10.35;;;3.85;;
50393;SDS011;36308;46.312;25.288;2023-04-19T13:37:07;6.07;;;2.00;;
50393;SDS011;36308;46.312;25.288;2023-04-19T13:39:33;11.45;;;2.40;;
50393;SDS011;36308;46.312;25.288;2023-04-19T13:41:58;5.75;;;2.15;;
50393;SDS011;36308;46.312;25.288;2023-04-19T13:44:26;5.03;;;2.90;;
50393;SDS011;36308;46.312;25.288;2023-04-19T13:46:52;4.90;;;4.40;;
50393;SDS011;36308;46.312;25.288;2023-04-19T13:49:17;3.65;;;2.10;;
50393;SDS011;36308;46.312;25.288;2023-04-19T13:51:43;3.25;;;2.47;;
50393;SDS011;36308;46.312;25.288;2023-04-19T13:54:08;5.75;;;3.70;;
50393;SDS011;36308;46.312;25.288;2023-04-19T13:56:34;4.28;;;2.40;;
50393;SDS011;36308;46.312;25.288;2023-04-19T13:59:00;7.88;;;2.55;;
50393;SDS011;36308;46.312;25.288;2023-04-19T14:01:25;4.00;;;2.42;;
50393;SDS011;36308;46.312;25.288;2023-04-19T14:03:51;5.60;;;1.88;;
50393;SDS011;36308;46.312;25.288;2023-04-19T14:06:17;5.03;;;1.58;;
50393;SDS011;36308;46.312;25.288;2023-04-19T14:08:43;3.85;;;2.00;;
50393;SDS011;36308;46.312;25.288;2023-04-19T14:11:08;4.18;;;2.35;;
50393;SDS011;36308;46.312;25.288;2023-04-19T14:13:34;3.67;;;1.75;;
50393;SDS011;36308;46.312;25.288;2023-04-19T14:16:00;3.08;;;1.88;;
50393;SDS011;36308;46.312;25.288;2023-04-19T14:18:25;3.88;;;1.95;;
50393;SDS011;36308;46.312;25.288;2023-04-19T14:20:51;4.50;;;2.50;;
50393;SDS011;36308;46.312;25.288;2023-04-19T14:23:17;3.13;;;2.47;;
50393;SDS011;36308;46.312;25.288;2023-04-19T14:25:42;5.63;;;2.30;;
50393;SDS011;36308;46.312;25.288;2023-04-19T14:28:08;8.80;;;2.80;;
50393;SDS011;36308;46.312;25.288;2023-04-19T14:30:33;4.50;;;2.22;;
50393;SDS011;36308;46.312;25.288;2023-04-19T14:32:59;5.60;;;2.22;;
50393;SDS011;36308;46.312;25.288;2023-04-19T14:35:24;6.80;;;2.10;;
50393;SDS011;36308;46.312;25.288;2023-04-19T14:37:51;7.00;;;2.88;;
50393;SDS011;36308;46.312;25.288;2023-04-19T14:40:17;6.10;;;2.88;;
50393;SDS011;36308;46.312;25.288;2023-04-19T14:42:43;5.80;;;2.60;;
50393;SDS011;36308;46.312;25.288;2023-04-19T14:45:09;7.55;;;3.00;;
50393;SDS011;36308;46.312;25.288;2023-04-19T14:47:35;9.55;;;3.95;;
50393;SDS011;36308;46.312;25.288;2023-04-19T14:50:00;9.75;;;3.78;;
50393;SDS011;36308;46.312;25.288;2023-04-19T14:52:26;12.07;;;6.22;;
50393;SDS011;36308;46.312;25.288;2023-04-19T14:54:51;7.20;;;4.32;;